sensor_id;sensor_type;location;lat;lon;timestamp;P1;durP1;ratioP1;P2;durP2;ratioP2
21301;SDS011;10810;48.270;9.996;2023-12-28T00:01:47;14.00;;;5.53;;
21301;SDS011;10810;48.270;9.996;2023-12-28T00:04:18;14.33;;;6.27;;
21301;SDS011;10810;48.270;9.996;2023-12-28T00:07:16;13.37;;;5.47;;
21301;SDS011;10810;48.270;9.996;2023-12-28T00:09:37;16.57;;;6.23;;
21301;SDS011;10810;48.270;9.996;2023-12-28T00:12:24;14.67;;;6.00;;
21301;SDS011;10810;48.270;9.996;2023-12-28T00:15:02;15.03;;;6.17;;
21301;SDS011;10810;48.270;9.996;2023-12-28T00:21:05;14.80;;;6.20;;
21301;SDS011;10810;48.270;9.996;2023-12-28T00:23:33;14.73;;;5.97;;
21301;SDS011;10810;48.270;9.996;2023-12-28T00:26:02;16.67;;;6.47;;
21301;SDS011;10810;48.270;9.996;2023-12-28T00:28:48;14.83;;;6.30;;
21301;SDS011;10810;48.270;9.996;2023-12-28T00:31:18;17.17;;;6.57;;
21301;SDS011;10810;48.270;9.996;2023-12-28T00:34:00;15.70;;;6.30;;
21301;SDS011;10810;48.270;9.996;2023-12-28T00:36:31;15.27;;;6.63;;
21301;SDS011;10810;48.270;9.996;2023-12-28T00:39:28;15.77;;;6.57;;
21301;SDS011;10810;48.270;9.996;2023-12-28T00:42:11;15.17;;;6.60;;
21301;SDS011;10810;48.270;9.996;2023-12-28T00:44:54;14.33;;;7.00;;
21301;SDS011;10810;48.270;9.996;2023-12-28T00:50:25;14.93;;;7.03;;
21301;SDS011;10810;48.270;9.996;2023-12-28T00:59:15;15.60;;;6.50;;
21301;SDS011;10810;48.270;9.996;2023-12-28T01:01:44;14.47;;;6.10;;
21301;SDS011;10810;48.270;9.996;2023-12-28T01:04:17;15.70;;;6.87;;
21301;SDS011;10810;48.270;9.996;2023-12-28T01:10:35;14.93;;;6.43;;
21301;SDS011;10810;48.270;9.996;2023-12-28T01:14:16;17.03;;;6.87;;
21301;SDS011;10810;48.270;9.996;2023-12-28T01:17:07;14.70;;;6.47;;
21301;SDS011;10810;48.270;9.996;2023-12-28T01:29:26;16.27;;;5.90;;
21301;SDS011;10810;48.270;9.996;2023-12-28T01:32:34;13.77;;;5.53;;
21301;SDS011;10810;48.270;9.996;2023-12-28T01:34:50;14.90;;;6.20;;
21301;SDS011;10810;48.270;9.996;2023-12-28T01:37:25;16.17;;;6.30;;
21301;SDS011;10810;48.270;9.996;2023-12-28T01:40:10;13.23;;;5.80;;
21301;SDS011;10810;48.270;9.996;2023-12-28T01:45:55;12.93;;;5.30;;
21301;SDS011;10810;48.270;9.996;2023-12-28T01:48:28;11.97;;;5.33;;
21301;SDS011;10810;48.270;9.996;2023-12-28T01:51:09;13.43;;;5.37;;
21301;SDS011;10810;48.270;9.996;2023-12-28T01:53:59;14.00;;;5.60;;
21301;SDS011;10810;48.270;9.996;2023-12-28T01:56:36;15.00;;;5.90;;
21301;SDS011;10810;48.270;9.996;2023-12-28T01:59:25;15.43;;;5.93;;
21301;SDS011;10810;48.270;9.996;2023-12-28T02:02:29;14.40;;;5.80;;
21301;SDS011;10810;48.270;9.996;2023-12-28T02:05:17;13.67;;;6.10;;
21301;SDS011;10810;48.270;9.996;2023-12-28T02:08:03;15.53;;;5.90;;
21301;SDS011;10810;48.270;9.996;2023-12-28T02:10:48;15.20;;;6.23;;
21301;SDS011;10810;48.270;9.996;2023-12-28T02:28:28;14.97;;;5.47;;
21301;SDS011;10810;48.270;9.996;2023-12-28T02:32:27;13.23;;;5.57;;
21301;SDS011;10810;48.270;9.996;2023-12-28T02:34:25;13.03;;;6.13;;
21301;SDS011;10810;48.270;9.996;2023-12-28T02:54:39;13.50;;;5.00;;
21301;SDS011;10810;48.270;9.996;2023-12-28T02:57:49;15.80;;;5.60;;
21301;SDS011;10810;48.270;9.996;2023-12-28T03:04:12;10.33;;;5.03;;
21301;SDS011;10810;48.270;9.996;2023-12-28T03:06:50;12.97;;;5.03;;
21301;SDS011;10810;48.270;9.996;2023-12-28T03:09:37;14.13;;;5.10;;
21301;SDS011;10810;48.270;9.996;2023-12-28T03:18:28;11.57;;;4.60;;
21301;SDS011;10810;48.270;9.996;2023-12-28T03:20:56;11.53;;;4.60;;
21301;SDS011;10810;48.270;9.996;2023-12-28T03:26:56;8.90;;;4.60;;
21301;SDS011;10810;48.270;9.996;2023-12-28T03:29:44;10.43;;;4.73;;
21301;SDS011;10810;48.270;9.996;2023-12-28T03:32:20;10.87;;;5.00;;
21301;SDS011;10810;48.270;9.996;2023-12-28T03:37:47;11.37;;;4.43;;
21301;SDS011;10810;48.270;9.996;2023-12-28T03:40:50;11.07;;;4.47;;
21301;SDS011;10810;48.270;9.996;2023-12-28T03:43:17;11.13;;;4.67;;
21301;SDS011;10810;48.270;9.996;2023-12-28T03:45:47;9.13;;;4.70;;
21301;SDS011;10810;48.270;9.996;2023-12-28T03:48:18;11.60;;;5.10;;
21301;SDS011;10810;48.270;9.996;2023-12-28T03:51:04;11.23;;;4.70;;
21301;SDS011;10810;48.270;9.996;2023-12-28T03:53:50;12.07;;;5.17;;
21301;SDS011;10810;48.270;9.996;2023-12-28T03:59:45;10.80;;;4.73;;
21301;SDS011;10810;48.270;9.996;2023-12-28T04:02:18;9.43;;;4.73;;
21301;SDS011;10810;48.270;9.996;2023-12-28T04:04:49;10.70;;;4.67;;
21301;SDS011;10810;48.270;9.996;2023-12-28T04:07:54;12.67;;;5.23;;
21301;SDS011;10810;48.270;9.996;2023-12-28T04:10:31;9.70;;;4.77;;
21301;SDS011;10810;48.270;9.996;2023-12-28T04:13:31;10.10;;;4.80;;
21301;SDS011;10810;48.270;9.996;2023-12-28T04:16:02;11.23;;;4.90;;
21301;SDS011;10810;48.270;9.996;2023-12-28T04:18:47;10.97;;;5.07;;
21301;SDS011;10810;48.270;9.996;2023-12-28T04:21:19;13.57;;;5.50;;
21301;SDS011;10810;48.270;9.996;2023-12-28T04:24:03;8.23;;;4.37;;
21301;SDS011;10810;48.270;9.996;2023-12-28T04:26:37;11.03;;;4.80;;
21301;SDS011;10810;48.270;9.996;2023-12-28T04:29:08;12.90;;;4.90;;
21301;SDS011;10810;48.270;9.996;2023-12-28T04:31:53;10.13;;;4.70;;
21301;SDS011;10810;48.270;9.996;2023-12-28T04:34:55;10.40;;;4.53;;
21301;SDS011;10810;48.270;9.996;2023-12-28T04:37:38;11.03;;;4.70;;
21301;SDS011;10810;48.270;9.996;2023-12-28T04:40:09;9.87;;;4.40;;
21301;SDS011;10810;48.270;9.996;2023-12-28T04:43:04;10.33;;;5.00;;
21301;SDS011;10810;48.270;9.996;2023-12-28T04:45:50;9.10;;;4.60;;
21301;SDS011;10810;48.270;9.996;2023-12-28T04:49:10;12.90;;;4.67;;
21301;SDS011;10810;48.270;9.996;2023-12-28T04:58:31;10.30;;;5.15;;
21301;SDS011;10810;48.270;9.996;2023-12-28T05:01:16;10.73;;;4.40;;
21301;SDS011;10810;48.270;9.996;2023-12-28T05:03:58;8.97;;;3.80;;
21301;SDS011;10810;48.270;9.996;2023-12-28T05:06:28;12.70;;;4.30;;
21301;SDS011;10810;48.270;9.996;2023-12-28T05:08:57;8.03;;;3.60;;
21301;SDS011;10810;48.270;9.996;2023-12-28T05:11:32;8.13;;;4.07;;
21301;SDS011;10810;48.270;9.996;2023-12-28T05:14:05;8.17;;;3.70;;
21301;SDS011;10810;48.270;9.996;2023-12-28T05:16:34;11.53;;;4.43;;
21301;SDS011;10810;48.270;9.996;2023-12-28T05:19:09;10.73;;;4.53;;
21301;SDS011;10810;48.270;9.996;2023-12-28T05:21:40;12.57;;;5.47;;
21301;SDS011;10810;48.270;9.996;2023-12-28T05:25:53;11.80;;;5.10;;
21301;SDS011;10810;48.270;9.996;2023-12-28T05:27:26;12.70;;;5.23;;
21301;SDS011;10810;48.270;9.996;2023-12-28T05:29:58;9.57;;;5.07;;
21301;SDS011;10810;48.270;9.996;2023-12-28T05:32:34;12.87;;;5.30;;
21301;SDS011;10810;48.270;9.996;2023-12-28T05:35:20;15.07;;;4.77;;
21301;SDS011;10810;48.270;9.996;2023-12-28T05:37:47;10.20;;;4.60;;
21301;SDS011;10810;48.270;9.996;2023-12-28T05:40:15;9.17;;;4.63;;
21301;SDS011;10810;48.270;9.996;2023-12-28T05:42:43;10.50;;;4.40;;
21301;SDS011;10810;48.270;9.996;2023-12-28T05:45:11;10.40;;;4.33;;
21301;SDS011;10810;48.270;9.996;2023-12-28T05:47:45;12.23;;;5.07;;
21301;SDS011;10810;48.270;9.996;2023-12-28T05:50:13;14.37;;;6.23;;
21301;SDS011;10810;48.270;9.996;2023-12-28T05:52:40;14.77;;;5.87;;
21301;SDS011;10810;48.270;9.996;2023-12-28T05:55:07;14.27;;;5.23;;
21301;SDS011;10810;48.270;9.996;2023-12-28T05:57:35;16.37;;;6.00;;
21301;SDS011;10810;48.270;9.996;2023-12-28T06:00:06;15.33;;;5.73;;
21301;SDS011;10810;48.270;9.996;2023-12-28T06:02:34;11.83;;;5.17;;
21301;SDS011;10810;48.270;9.996;2023-12-28T06:05:02;11.43;;;5.03;;
21301;SDS011;10810;48.270;9.996;2023-12-28T06:07:29;11.37;;;4.83;;
21301;SDS011;10810;48.270;9.996;2023-12-28T06:09:56;11.30;;;5.40;;
21301;SDS011;10810;48.270;9.996;2023-12-28T06:12:26;11.63;;;5.53;;
21301;SDS011;10810;48.270;9.996;2023-12-28T06:14:53;13.33;;;5.27;;
21301;SDS011;10810;48.270;9.996;2023-12-28T06:17:22;11.70;;;5.20;;
21301;SDS011;10810;48.270;9.996;2023-12-28T06:19:50;13.30;;;5.33;;
21301;SDS011;10810;48.270;9.996;2023-12-28T06:22:17;13.03;;;5.30;;
21301;SDS011;10810;48.270;9.996;2023-12-28T06:24:45;13.87;;;5.17;;
21301;SDS011;10810;48.270;9.996;2023-12-28T06:27:12;12.53;;;5.10;;
21301;SDS011;10810;48.270;9.996;2023-12-28T06:29:45;12.43;;;5.70;;
21301;SDS011;10810;48.270;9.996;2023-12-28T06:32:19;11.47;;;5.03;;
21301;SDS011;10810;48.270;9.996;2023-12-28T06:34:48;14.60;;;5.67;;
21301;SDS011;10810;48.270;9.996;2023-12-28T06:37:15;11.03;;;5.20;;
21301;SDS011;10810;48.270;9.996;2023-12-28T06:39:42;12.23;;;5.20;;
21301;SDS011;10810;48.270;9.996;2023-12-28T06:42:10;12.17;;;5.13;;
21301;SDS011;10810;48.270;9.996;2023-12-28T06:44:37;12.70;;;4.83;;
21301;SDS011;10810;48.270;9.996;2023-12-28T06:47:15;14.20;;;5.23;;
21301;SDS011;10810;48.270;9.996;2023-12-28T06:49:42;16.30;;;5.70;;
21301;SDS011;10810;48.270;9.996;2023-12-28T06:52:13;13.43;;;5.40;;
21301;SDS011;10810;48.270;9.996;2023-12-28T06:54:47;13.70;;;5.00;;
21301;SDS011;10810;48.270;9.996;2023-12-28T06:57:17;15.07;;;5.53;;
21301;SDS011;10810;48.270;9.996;2023-12-28T06:59:44;10.93;;;5.33;;
21301;SDS011;10810;48.270;9.996;2023-12-28T07:02:12;11.27;;;5.20;;
21301;SDS011;10810;48.270;9.996;2023-12-28T07:04:39;11.83;;;5.27;;
21301;SDS011;10810;48.270;9.996;2023-12-28T07:07:08;10.47;;;4.47;;
21301;SDS011;10810;48.270;9.996;2023-12-28T07:10:12;11.40;;;4.63;;
21301;SDS011;10810;48.270;9.996;2023-12-28T07:12:39;13.07;;;4.50;;
21301;SDS011;10810;48.270;9.996;2023-12-28T07:15:07;12.00;;;4.57;;
21301;SDS011;10810;48.270;9.996;2023-12-28T07:17:38;8.40;;;4.30;;
21301;SDS011;10810;48.270;9.996;2023-12-28T07:20:06;9.27;;;4.20;;
21301;SDS011;10810;48.270;9.996;2023-12-28T07:22:35;12.17;;;4.63;;
21301;SDS011;10810;48.270;9.996;2023-12-28T07:25:03;16.40;;;6.45;;
21301;SDS011;10810;48.270;9.996;2023-12-28T07:27:32;30.20;;;13.50;;
21301;SDS011;10810;48.270;9.996;2023-12-28T07:30:00;23.67;;;10.57;;
21301;SDS011;10810;48.270;9.996;2023-12-28T07:32:28;21.67;;;9.07;;
21301;SDS011;10810;48.270;9.996;2023-12-28T07:34:56;26.37;;;10.23;;
21301;SDS011;10810;48.270;9.996;2023-12-28T07:37:24;19.40;;;7.20;;
21301;SDS011;10810;48.270;9.996;2023-12-28T07:39:52;15.83;;;6.37;;
21301;SDS011;10810;48.270;9.996;2023-12-28T07:42:19;19.17;;;7.43;;
21301;SDS011;10810;48.270;9.996;2023-12-28T07:44:48;16.67;;;6.87;;
21301;SDS011;10810;48.270;9.996;2023-12-28T07:47:17;16.60;;;6.90;;
21301;SDS011;10810;48.270;9.996;2023-12-28T07:49:46;14.27;;;5.67;;
21301;SDS011;10810;48.270;9.996;2023-12-28T07:52:15;15.33;;;6.60;;
21301;SDS011;10810;48.270;9.996;2023-12-28T07:54:42;13.70;;;5.53;;
21301;SDS011;10810;48.270;9.996;2023-12-28T07:57:11;14.63;;;5.90;;
21301;SDS011;10810;48.270;9.996;2023-12-28T07:59:38;13.67;;;5.90;;
21301;SDS011;10810;48.270;9.996;2023-12-28T08:02:07;12.20;;;4.97;;
21301;SDS011;10810;48.270;9.996;2023-12-28T08:04:34;11.00;;;5.23;;
21301;SDS011;10810;48.270;9.996;2023-12-28T08:07:02;12.07;;;5.20;;
21301;SDS011;10810;48.270;9.996;2023-12-28T08:09:29;11.43;;;4.90;;
21301;SDS011;10810;48.270;9.996;2023-12-28T08:11:56;13.23;;;6.50;;
21301;SDS011;10810;48.270;9.996;2023-12-28T08:14:24;15.13;;;6.83;;
21301;SDS011;10810;48.270;9.996;2023-12-28T08:16:51;13.47;;;5.60;;
21301;SDS011;10810;48.270;9.996;2023-12-28T08:19:20;14.00;;;6.80;;
21301;SDS011;10810;48.270;9.996;2023-12-28T08:21:47;13.87;;;6.17;;
21301;SDS011;10810;48.270;9.996;2023-12-28T08:24:14;14.07;;;5.87;;
21301;SDS011;10810;48.270;9.996;2023-12-28T08:26:41;14.03;;;6.17;;
21301;SDS011;10810;48.270;9.996;2023-12-28T08:29:09;16.67;;;6.80;;
21301;SDS011;10810;48.270;9.996;2023-12-28T08:31:36;10.73;;;5.30;;
21301;SDS011;10810;48.270;9.996;2023-12-28T08:34:03;14.87;;;5.70;;
21301;SDS011;10810;48.270;9.996;2023-12-28T08:36:32;12.67;;;5.80;;
21301;SDS011;10810;48.270;9.996;2023-12-28T08:38:59;15.97;;;5.90;;
21301;SDS011;10810;48.270;9.996;2023-12-28T08:41:26;12.57;;;5.60;;
21301;SDS011;10810;48.270;9.996;2023-12-28T08:43:53;12.73;;;5.70;;
21301;SDS011;10810;48.270;9.996;2023-12-28T08:46:20;13.57;;;6.03;;
21301;SDS011;10810;48.270;9.996;2023-12-28T08:48:49;17.00;;;7.23;;
21301;SDS011;10810;48.270;9.996;2023-12-28T08:51:17;17.13;;;7.53;;
21301;SDS011;10810;48.270;9.996;2023-12-28T08:53:45;16.77;;;6.80;;
21301;SDS011;10810;48.270;9.996;2023-12-28T08:56:13;15.83;;;6.30;;
21301;SDS011;10810;48.270;9.996;2023-12-28T08:58:42;14.70;;;6.20;;
21301;SDS011;10810;48.270;9.996;2023-12-28T09:01:15;13.90;;;5.33;;
21301;SDS011;10810;48.270;9.996;2023-12-28T09:03:42;11.37;;;5.07;;
21301;SDS011;10810;48.270;9.996;2023-12-28T09:06:10;13.33;;;5.67;;
21301;SDS011;10810;48.270;9.996;2023-12-28T09:08:37;15.73;;;6.10;;
21301;SDS011;10810;48.270;9.996;2023-12-28T09:11:05;14.90;;;6.20;;
21301;SDS011;10810;48.270;9.996;2023-12-28T09:13:32;13.23;;;5.53;;
21301;SDS011;10810;48.270;9.996;2023-12-28T09:16:00;11.73;;;5.33;;
21301;SDS011;10810;48.270;9.996;2023-12-28T09:18:28;13.37;;;5.43;;
21301;SDS011;10810;48.270;9.996;2023-12-28T09:20:58;12.40;;;4.93;;
21301;SDS011;10810;48.270;9.996;2023-12-28T09:23:25;12.33;;;5.40;;
21301;SDS011;10810;48.270;9.996;2023-12-28T09:25:52;13.20;;;5.60;;
21301;SDS011;10810;48.270;9.996;2023-12-28T09:28:21;11.37;;;5.40;;
21301;SDS011;10810;48.270;9.996;2023-12-28T09:30:48;15.07;;;5.70;;
21301;SDS011;10810;48.270;9.996;2023-12-28T09:33:15;13.20;;;6.43;;
21301;SDS011;10810;48.270;9.996;2023-12-28T09:35:42;12.37;;;6.13;;
21301;SDS011;10810;48.270;9.996;2023-12-28T09:38:09;12.60;;;5.77;;
21301;SDS011;10810;48.270;9.996;2023-12-28T09:40:36;11.27;;;5.63;;
21301;SDS011;10810;48.270;9.996;2023-12-28T09:43:06;12.90;;;5.73;;
21301;SDS011;10810;48.270;9.996;2023-12-28T09:45:40;12.87;;;5.47;;
21301;SDS011;10810;48.270;9.996;2023-12-28T09:48:07;8.90;;;4.73;;
21301;SDS011;10810;48.270;9.996;2023-12-28T09:50:34;11.87;;;4.97;;
21301;SDS011;10810;48.270;9.996;2023-12-28T09:53:03;9.70;;;4.43;;
21301;SDS011;10810;48.270;9.996;2023-12-28T09:55:31;9.60;;;4.30;;
21301;SDS011;10810;48.270;9.996;2023-12-28T09:57:58;10.30;;;4.03;;
21301;SDS011;10810;48.270;9.996;2023-12-28T10:00:30;7.87;;;3.63;;
21301;SDS011;10810;48.270;9.996;2023-12-28T10:03:00;10.77;;;3.60;;
21301;SDS011;10810;48.270;9.996;2023-12-28T10:05:28;9.60;;;3.60;;
21301;SDS011;10810;48.270;9.996;2023-12-28T10:07:55;9.20;;;3.40;;
21301;SDS011;10810;48.270;9.996;2023-12-28T10:10:23;11.50;;;5.23;;
21301;SDS011;10810;48.270;9.996;2023-12-28T10:12:50;9.60;;;4.73;;
21301;SDS011;10810;48.270;9.996;2023-12-28T10:15:18;8.03;;;3.57;;
21301;SDS011;10810;48.270;9.996;2023-12-28T10:17:45;8.77;;;3.80;;
21301;SDS011;10810;48.270;9.996;2023-12-28T10:20:17;8.03;;;3.43;;
21301;SDS011;10810;48.270;9.996;2023-12-28T10:22:52;8.53;;;3.40;;
21301;SDS011;10810;48.270;9.996;2023-12-28T10:25:19;8.87;;;3.53;;
21301;SDS011;10810;48.270;9.996;2023-12-28T10:27:49;9.73;;;3.80;;
21301;SDS011;10810;48.270;9.996;2023-12-28T10:30:17;8.57;;;3.90;;
21301;SDS011;10810;48.270;9.996;2023-12-28T10:32:45;9.90;;;4.23;;
21301;SDS011;10810;48.270;9.996;2023-12-28T10:35:12;8.77;;;4.37;;
21301;SDS011;10810;48.270;9.996;2023-12-28T10:37:42;10.53;;;4.57;;
21301;SDS011;10810;48.270;9.996;2023-12-28T10:40:13;10.80;;;4.63;;
21301;SDS011;10810;48.270;9.996;2023-12-28T10:42:47;11.33;;;4.60;;
21301;SDS011;10810;48.270;9.996;2023-12-28T10:45:19;10.60;;;4.13;;
21301;SDS011;10810;48.270;9.996;2023-12-28T10:47:54;8.87;;;4.50;;
21301;SDS011;10810;48.270;9.996;2023-12-28T10:50:30;10.10;;;4.20;;
21301;SDS011;10810;48.270;9.996;2023-12-28T10:53:07;9.23;;;4.30;;
21301;SDS011;10810;48.270;9.996;2023-12-28T10:55:48;9.90;;;4.50;;
21301;SDS011;10810;48.270;9.996;2023-12-28T10:58:24;9.87;;;4.97;;
21301;SDS011;10810;48.270;9.996;2023-12-28T11:01:05;13.00;;;5.23;;
21301;SDS011;10810;48.270;9.996;2023-12-28T11:03:37;13.07;;;5.63;;
21301;SDS011;10810;48.270;9.996;2023-12-28T11:06:08;10.53;;;5.23;;
21301;SDS011;10810;48.270;9.996;2023-12-28T11:08:37;12.53;;;5.13;;
21301;SDS011;10810;48.270;9.996;2023-12-28T11:11:08;11.67;;;5.70;;
21301;SDS011;10810;48.270;9.996;2023-12-28T11:13:35;12.90;;;5.83;;
21301;SDS011;10810;48.270;9.996;2023-12-28T11:16:04;14.67;;;5.93;;
21301;SDS011;10810;48.270;9.996;2023-12-28T11:18:32;12.50;;;4.80;;
21301;SDS011;10810;48.270;9.996;2023-12-28T11:20:59;12.07;;;4.60;;
21301;SDS011;10810;48.270;9.996;2023-12-28T11:23:28;12.23;;;5.23;;
21301;SDS011;10810;48.270;9.996;2023-12-28T11:25:55;10.70;;;5.03;;
21301;SDS011;10810;48.270;9.996;2023-12-28T11:28:24;11.13;;;5.13;;
21301;SDS011;10810;48.270;9.996;2023-12-28T11:30:52;12.10;;;5.07;;
21301;SDS011;10810;48.270;9.996;2023-12-28T11:33:19;10.73;;;4.80;;
21301;SDS011;10810;48.270;9.996;2023-12-28T11:35:47;9.00;;;4.47;;
21301;SDS011;10810;48.270;9.996;2023-12-28T11:38:15;8.83;;;4.20;;
21301;SDS011;10810;48.270;9.996;2023-12-28T11:40:46;11.37;;;4.57;;
21301;SDS011;10810;48.270;9.996;2023-12-28T11:43:29;10.23;;;4.57;;
21301;SDS011;10810;48.270;9.996;2023-12-28T11:46:05;8.43;;;3.83;;
21301;SDS011;10810;48.270;9.996;2023-12-28T11:48:37;9.83;;;3.50;;
21301;SDS011;10810;48.270;9.996;2023-12-28T11:51:04;7.03;;;3.30;;
21301;SDS011;10810;48.270;9.996;2023-12-28T11:53:32;7.27;;;3.70;;
21301;SDS011;10810;48.270;9.996;2023-12-28T11:58:57;7.73;;;3.23;;
21301;SDS011;10810;48.270;9.996;2023-12-28T12:01:38;7.63;;;3.10;;
21301;SDS011;10810;48.270;9.996;2023-12-28T12:04:06;7.17;;;3.40;;
21301;SDS011;10810;48.270;9.996;2023-12-28T12:06:41;7.27;;;3.33;;
21301;SDS011;10810;48.270;9.996;2023-12-28T12:09:18;5.90;;;2.97;;
21301;SDS011;10810;48.270;9.996;2023-12-28T12:11:49;7.07;;;2.83;;
21301;SDS011;10810;48.270;9.996;2023-12-28T12:14:16;6.23;;;2.80;;
21301;SDS011;10810;48.270;9.996;2023-12-28T12:16:47;6.80;;;3.03;;
21301;SDS011;10810;48.270;9.996;2023-12-28T12:19:17;6.87;;;3.10;;
21301;SDS011;10810;48.270;9.996;2023-12-28T12:21:52;9.40;;;4.50;;
21301;SDS011;10810;48.270;9.996;2023-12-28T12:24:24;7.73;;;3.63;;
21301;SDS011;10810;48.270;9.996;2023-12-28T12:26:53;8.07;;;4.10;;
21301;SDS011;10810;48.270;9.996;2023-12-28T12:29:20;9.30;;;4.80;;
21301;SDS011;10810;48.270;9.996;2023-12-28T12:31:48;10.90;;;5.10;;
21301;SDS011;10810;48.270;9.996;2023-12-28T12:34:21;9.60;;;4.60;;
21301;SDS011;10810;48.270;9.996;2023-12-28T12:36:48;8.97;;;4.10;;
21301;SDS011;10810;48.270;9.996;2023-12-28T12:39:34;9.17;;;4.17;;
21301;SDS011;10810;48.270;9.996;2023-12-28T12:42:04;8.60;;;3.70;;
21301;SDS011;10810;48.270;9.996;2023-12-28T12:44:35;6.73;;;3.03;;
21301;SDS011;10810;48.270;9.996;2023-12-28T12:47:03;6.33;;;3.07;;
21301;SDS011;10810;48.270;9.996;2023-12-28T12:49:40;7.17;;;2.97;;
21301;SDS011;10810;48.270;9.996;2023-12-28T12:52:23;6.40;;;2.90;;
21301;SDS011;10810;48.270;9.996;2023-12-28T12:54:58;6.70;;;3.20;;
21301;SDS011;10810;48.270;9.996;2023-12-28T12:57:27;8.47;;;3.00;;
21301;SDS011;10810;48.270;9.996;2023-12-28T12:59:57;6.67;;;2.97;;
21301;SDS011;10810;48.270;9.996;2023-12-28T13:02:27;5.97;;;2.90;;
21301;SDS011;10810;48.270;9.996;2023-12-28T13:04:57;7.63;;;3.20;;
21301;SDS011;10810;48.270;9.996;2023-12-28T13:07:26;6.23;;;2.97;;
21301;SDS011;10810;48.270;9.996;2023-12-28T13:09:55;6.40;;;3.13;;
21301;SDS011;10810;48.270;9.996;2023-12-28T13:13:58;5.67;;;2.70;;
21301;SDS011;10810;48.270;9.996;2023-12-28T13:15:15;7.63;;;3.00;;
21301;SDS011;10810;48.270;9.996;2023-12-28T13:17:47;6.87;;;2.90;;
21301;SDS011;10810;48.270;9.996;2023-12-28T13:20:14;6.43;;;2.63;;
21301;SDS011;10810;48.270;9.996;2023-12-28T13:22:41;5.83;;;2.80;;
21301;SDS011;10810;48.270;9.996;2023-12-28T13:25:10;5.07;;;2.63;;
21301;SDS011;10810;48.270;9.996;2023-12-28T13:27:37;7.00;;;2.70;;
21301;SDS011;10810;48.270;9.996;2023-12-28T13:30:07;7.33;;;2.93;;
21301;SDS011;10810;48.270;9.996;2023-12-28T13:32:34;5.53;;;2.93;;
21301;SDS011;10810;48.270;9.996;2023-12-28T13:35:02;5.23;;;2.97;;
21301;SDS011;10810;48.270;9.996;2023-12-28T13:37:29;5.93;;;3.20;;
21301;SDS011;10810;48.270;9.996;2023-12-28T13:39:57;6.37;;;3.03;;
21301;SDS011;10810;48.270;9.996;2023-12-28T13:42:24;7.87;;;3.40;;
21301;SDS011;10810;48.270;9.996;2023-12-28T13:44:51;8.17;;;3.33;;
21301;SDS011;10810;48.270;9.996;2023-12-28T13:47:20;6.07;;;3.20;;
21301;SDS011;10810;48.270;9.996;2023-12-28T13:49:47;5.50;;;3.20;;
21301;SDS011;10810;48.270;9.996;2023-12-28T13:52:14;8.17;;;3.70;;
21301;SDS011;10810;48.270;9.996;2023-12-28T13:54:41;6.73;;;3.53;;
21301;SDS011;10810;48.270;9.996;2023-12-28T13:57:09;7.70;;;3.70;;
21301;SDS011;10810;48.270;9.996;2023-12-28T13:59:36;7.53;;;3.80;;
21301;SDS011;10810;48.270;9.996;2023-12-28T14:02:03;8.97;;;3.40;;
21301;SDS011;10810;48.270;9.996;2023-12-28T14:04:32;6.47;;;3.20;;
21301;SDS011;10810;48.270;9.996;2023-12-28T14:06:59;6.83;;;3.10;;
21301;SDS011;10810;48.270;9.996;2023-12-28T14:09:28;7.13;;;2.90;;
21301;SDS011;10810;48.270;9.996;2023-12-28T14:11:58;6.27;;;3.13;;
21301;SDS011;10810;48.270;9.996;2023-12-28T14:14:27;7.33;;;2.87;;
21301;SDS011;10810;48.270;9.996;2023-12-28T14:16:54;8.63;;;3.30;;
21301;SDS011;10810;48.270;9.996;2023-12-28T14:19:21;7.00;;;3.10;;
21301;SDS011;10810;48.270;9.996;2023-12-28T14:22:04;5.77;;;2.77;;
21301;SDS011;10810;48.270;9.996;2023-12-28T14:24:34;8.47;;;3.07;;
21301;SDS011;10810;48.270;9.996;2023-12-28T14:27:05;4.40;;;2.70;;
21301;SDS011;10810;48.270;9.996;2023-12-28T14:29:47;4.97;;;2.33;;
21301;SDS011;10810;48.270;9.996;2023-12-28T14:32:39;7.67;;;2.93;;
21301;SDS011;10810;48.270;9.996;2023-12-28T14:35:09;5.03;;;3.00;;
21301;SDS011;10810;48.270;9.996;2023-12-28T14:40:51;7.07;;;3.03;;
21301;SDS011;10810;48.270;9.996;2023-12-28T14:43:28;5.00;;;2.80;;
21301;SDS011;10810;48.270;9.996;2023-12-28T14:45:55;7.87;;;3.13;;
21301;SDS011;10810;48.270;9.996;2023-12-28T14:48:28;6.53;;;3.20;;
21301;SDS011;10810;48.270;9.996;2023-12-28T14:51:19;6.77;;;2.73;;
21301;SDS011;10810;48.270;9.996;2023-12-28T14:53:48;6.40;;;2.80;;
21301;SDS011;10810;48.270;9.996;2023-12-28T14:56:15;7.40;;;2.70;;
21301;SDS011;10810;48.270;9.996;2023-12-28T14:58:42;6.50;;;2.87;;
21301;SDS011;10810;48.270;9.996;2023-12-28T15:01:13;5.13;;;2.27;;
21301;SDS011;10810;48.270;9.996;2023-12-28T15:03:45;5.63;;;2.63;;
21301;SDS011;10810;48.270;9.996;2023-12-28T15:06:18;8.40;;;2.50;;
21301;SDS011;10810;48.270;9.996;2023-12-28T15:09:02;4.70;;;2.23;;
21301;SDS011;10810;48.270;9.996;2023-12-28T15:11:43;5.27;;;2.60;;
21301;SDS011;10810;48.270;9.996;2023-12-28T15:14:18;6.20;;;2.53;;
21301;SDS011;10810;48.270;9.996;2023-12-28T15:16:48;4.83;;;2.60;;
21301;SDS011;10810;48.270;9.996;2023-12-28T15:19:16;4.77;;;2.60;;
21301;SDS011;10810;48.270;9.996;2023-12-28T15:21:43;8.17;;;2.83;;
21301;SDS011;10810;48.270;9.996;2023-12-28T15:24:14;6.77;;;3.03;;
21301;SDS011;10810;48.270;9.996;2023-12-28T15:26:42;7.40;;;2.77;;
21301;SDS011;10810;48.270;9.996;2023-12-28T15:29:09;6.67;;;3.10;;
21301;SDS011;10810;48.270;9.996;2023-12-28T15:31:37;7.00;;;2.90;;
21301;SDS011;10810;48.270;9.996;2023-12-28T15:34:04;6.20;;;2.97;;
21301;SDS011;10810;48.270;9.996;2023-12-28T15:36:31;6.53;;;2.90;;
21301;SDS011;10810;48.270;9.996;2023-12-28T15:38:58;5.37;;;2.83;;
21301;SDS011;10810;48.270;9.996;2023-12-28T15:41:31;7.10;;;2.80;;
21301;SDS011;10810;48.270;9.996;2023-12-28T15:43:58;9.87;;;3.20;;
21301;SDS011;10810;48.270;9.996;2023-12-28T15:46:28;6.37;;;2.93;;
21301;SDS011;10810;48.270;9.996;2023-12-28T15:48:55;7.13;;;2.83;;
21301;SDS011;10810;48.270;9.996;2023-12-28T15:51:22;9.57;;;3.37;;
21301;SDS011;10810;48.270;9.996;2023-12-28T15:53:49;7.20;;;3.13;;
21301;SDS011;10810;48.270;9.996;2023-12-28T15:56:44;21.77;;;7.33;;
21301;SDS011;10810;48.270;9.996;2023-12-28T15:59:34;29.80;;;11.43;;
21301;SDS011;10810;48.270;9.996;2023-12-28T16:02:05;24.33;;;10.13;;
21301;SDS011;10810;48.270;9.996;2023-12-28T16:04:33;24.13;;;9.77;;
21301;SDS011;10810;48.270;9.996;2023-12-28T16:07:02;19.20;;;7.80;;
21301;SDS011;10810;48.270;9.996;2023-12-28T16:09:33;15.07;;;5.63;;
21301;SDS011;10810;48.270;9.996;2023-12-28T16:12:10;8.53;;;4.07;;
21301;SDS011;10810;48.270;9.996;2023-12-28T16:14:43;9.40;;;3.93;;
21301;SDS011;10810;48.270;9.996;2023-12-28T16:18:53;7.17;;;3.17;;
21301;SDS011;10810;48.270;9.996;2023-12-28T16:20:22;7.63;;;3.77;;
21301;SDS011;10810;48.270;9.996;2023-12-28T16:22:50;9.97;;;4.20;;
21301;SDS011;10810;48.270;9.996;2023-12-28T16:25:35;23.37;;;8.63;;
21301;SDS011;10810;48.270;9.996;2023-12-28T16:28:02;24.53;;;8.07;;
21301;SDS011;10810;48.270;9.996;2023-12-28T16:30:39;8.53;;;4.00;;
21301;SDS011;10810;48.270;9.996;2023-12-28T16:33:06;9.77;;;4.07;;
21301;SDS011;10810;48.270;9.996;2023-12-28T16:35:34;9.43;;;4.20;;
21301;SDS011;10810;48.270;9.996;2023-12-28T16:38:04;7.30;;;3.70;;
21301;SDS011;10810;48.270;9.996;2023-12-28T16:41:01;9.73;;;4.10;;
21301;SDS011;10810;48.270;9.996;2023-12-28T16:43:53;7.30;;;3.70;;
21301;SDS011;10810;48.270;9.996;2023-12-28T16:46:21;7.23;;;3.90;;
21301;SDS011;10810;48.270;9.996;2023-12-28T16:48:50;9.40;;;4.00;;
21301;SDS011;10810;48.270;9.996;2023-12-28T16:51:29;9.50;;;4.67;;